Time;durP1;ratioP1;P1;durP2;ratioP2;P2;SDS_P1;SDS_P2;PMS_P1;PMS_P2;Temp;Humidity;BMP_temperature;BMP_pressure;BME280_temperature;BME280_humidity;BME280_pressure;Samples;Min_cycle;Max_cycle;Signal;HPM_P1;HPM_P2
2021/01/29 00:00:22;;;;;;;2.43;1.60;;;;;;;;;;4774238;29;178815;-72
2021/01/29 00:02:50;;;;;;;2.63;1.47;;;;;;;;;;4767146;29;180483;-72
2021/01/29 00:05:20;;;;;;;3.70;1.33;;;;;;;;;;4771838;29;177573;-72
2021/01/29 00:07:47;;;;;;;2.90;1.60;;;;;;;;;;4775783;29;177899;-72
2021/01/29 00:10:14;;;;;;;5.03;1.63;;;;;;;;;;4771557;29;178590;-72
2021/01/29 00:12:41;;;;;;;1.40;1.30;;;;;;;;;;4772223;29;183032;-72
2021/01/29 00:15:09;;;;;;;1.83;1.30;;;;;;;;;;4776592;29;182316;-72
2021/01/29 00:17:36;;;;;;;1.67;1.47;;;;;;;;;;4774859;29;177869;-71
2021/01/29 00:20:05;;;;;;;8.37;2.10;;;;;;;;;;4776614;29;178784;-72
2021/01/29 00:22:32;;;;;;;3.50;1.80;;;;;;;;;;4774853;29;179814;-72
2021/01/29 00:24:59;;;;;;;2.60;1.30;;;;;;;;;;4775338;29;177945;-72
2021/01/29 00:27:25;;;;;;;4.73;1.57;;;;;;;;;;4759522;29;178652;-72
2021/01/29 00:29:52;;;;;;;4.33;1.43;;;;;;;;;;4776987;29;177119;-72
2021/01/29 00:32:19;;;;;;;2.13;1.30;;;;;;;;;;4773431;29;181225;-71
2021/01/29 00:34:45;;;;;;;1.93;1.63;;;;;;;;;;4774523;29;179120;-72
2021/01/29 00:37:12;;;;;;;3.20;1.53;;;;;;;;;;4774673;29;181265;-72
2021/01/29 00:39:39;;;;;;;4.23;1.73;;;;;;;;;;4776387;29;177964;-72
2021/01/29 00:42:05;;;;;;;1.33;1.20;;;;;;;;;;4775091;29;179347;-72
2021/01/29 00:44:32;;;;;;;2.23;1.50;;;;;;;;;;4776163;29;178238;-72
2021/01/29 00:46:58;;;;;;;3.53;1.57;;;;;;;;;;4776004;29;178516;-72
2021/01/29 00:49:25;;;;;;;3.37;1.50;;;;;;;;;;4776736;29;178427;-72
2021/01/29 00:51:52;;;;;;;4.50;1.50;;;;;;;;;;4758549;29;181777;-72
2021/01/29 00:54:19;;;;;;;5.57;1.70;;;;;;;;;;4758821;29;180847;-72
2021/01/29 00:56:45;;;;;;;2.33;1.67;;;;;;;;;;4771647;28;178566;-72
2021/01/29 00:59:15;;;;;;;10.03;1.80;;;;;;;;;;4771746;29;178349;-72
2021/01/29 01:02:00;;;;;;;2.03;1.20;;;;;;;;;;4765117;29;181883;-72
2021/01/29 01:04:27;;;;;;;6.00;1.67;;;;;;;;;;4759015;29;184545;-72
2021/01/29 01:06:54;;;;;;;2.87;1.50;;;;;;;;;;4759862;29;180094;-72
2021/01/29 01:09:47;;;;;;;7.57;1.70;;;;;;;;;;4772882;29;178093;-72
2021/01/29 01:12:27;;;;;;;4.40;1.70;;;;;;;;;;4758302;29;182549;-72
2021/01/29 01:15:08;;;;;;;2.73;1.40;;;;;;;;;;4759902;29;178462;-72
2021/01/29 01:17:42;;;;;;;2.53;1.30;;;;;;;;;;4759178;29;179092;-72
2021/01/29 01:20:31;;;;;;;2.17;1.40;;;;;;;;;;4760426;29;177099;-72
2021/01/29 01:22:58;;;;;;;1.63;1.10;;;;;;;;;;4758376;29;183064;-72
2021/01/29 01:25:39;;;;;;;1.80;1.30;;;;;;;;;;4758938;29;181537;-72
2021/01/29 01:28:16;;;;;;;2.30;1.40;;;;;;;;;;4758273;29;181315;-72
2021/01/29 01:30:49;;;;;;;2.83;1.63;;;;;;;;;;4774454;29;178111;-72
2021/01/29 01:33:20;;;;;;;2.67;1.43;;;;;;;;;;4774628;29;179831;-72
2021/01/29 01:36:00;;;;;;;3.97;1.20;;;;;;;;;;4758625;29;180009;-72
2021/01/29 01:38:35;;;;;;;9.97;1.70;;;;;;;;;;4758525;29;180041;-72
2021/01/29 01:41:03;;;;;;;1.97;1.73;;;;;;;;;;4776133;28;178798;-72
2021/01/29 01:43:39;;;;;;;4.10;1.30;;;;;;;;;;4758174;29;183368;-72
2021/01/29 01:46:29;;;;;;;3.43;1.50;;;;;;;;;;4769463;29;177465;-72
2021/01/29 01:49:31;;;;;;;3.10;1.50;;;;;;;;;;4779036;29;178254;-72
2021/01/29 01:52:28;;;;;;;2.20;1.30;;;;;;;;;;4775278;29;178696;-72
2021/01/29 01:55:22;;;;;;;1.77;1.30;;;;;;;;;;4772732;29;181917;-72
2021/01/29 01:58:01;;;;;;;3.57;1.67;;;;;;;;;;4761964;29;184775;-72
2021/01/29 02:00:38;;;;;;;2.33;1.47;;;;;;;;;;4777550;29;178594;-72
2021/01/29 02:03:22;;;;;;;1.50;1.40;;;;;;;;;;4761547;29;178786;-72
2021/01/29 02:06:06;;;;;;;2.93;1.40;;;;;;;;;;4777344;29;183599;-72
2021/01/29 02:08:41;;;;;;;4.10;1.50;;;;;;;;;;4774461;29;182782;-72
2021/01/29 02:11:18;;;;;;;3.57;1.60;;;;;;;;;;4776802;29;177926;-72
2021/01/29 02:13:59;;;;;;;1.73;1.33;;;;;;;;;;4777824;29;177080;-72
2021/01/29 02:16:51;;;;;;;3.80;1.37;;;;;;;;;;4774711;28;182708;-72
2021/01/29 02:19:45;;;;;;;5.03;1.40;;;;;;;;;;4761667;29;181175;-72
2021/01/29 02:22:30;;;;;;;3.60;1.70;;;;;;;;;;4759844;29;181343;-72
2021/01/29 02:25:31;;;;;;;1.90;1.30;;;;;;;;;;4761967;29;178334;-72
2021/01/29 02:28:07;;;;;;;2.53;1.37;;;;;;;;;;4759634;29;181934;-72
2021/01/29 02:31:04;;;;;;;4.10;1.67;;;;;;;;;;4775807;28;181528;-72
2021/01/29 02:33:54;;;;;;;3.63;1.50;;;;;;;;;;4760877;29;178331;-72
2021/01/29 02:36:44;;;;;;;1.97;1.50;;;;;;;;;;4760929;29;178079;-72
2021/01/29 02:39:30;;;;;;;3.10;1.47;;;;;;;;;;4773528;28;181219;-72
2021/01/29 02:42:04;;;;;;;7.00;1.80;;;;;;;;;;4776148;28;180169;-72
2021/01/29 02:44:53;;;;;;;4.20;1.77;;;;;;;;;;4760911;29;178132;-72
2021/01/29 02:47:46;;;;;;;4.67;1.67;;;;;;;;;;4776155;29;177936;-72
2021/01/29 02:50:48;;;;;;;2.63;1.40;;;;;;;;;;4774987;29;184260;-72
2021/01/29 02:53:37;;;;;;;2.33;1.70;;;;;;;;;;4773936;29;180623;-72
2021/01/29 02:56:29;;;;;;;1.60;1.50;;;;;;;;;;4759188;29;178374;-72
2021/01/29 02:59:32;;;;;;;2.23;1.30;;;;;;;;;;4758334;29;179081;-72
2021/01/29 03:02:23;;;;;;;2.40;1.60;;;;;;;;;;4764455;29;180477;-72
2021/01/29 03:05:11;;;;;;;3.93;1.70;;;;;;;;;;4760144;29;181678;-72
2021/01/29 03:07:51;;;;;;;4.63;1.50;;;;;;;;;;4769578;29;178443;-72
2021/01/29 03:10:40;;;;;;;2.90;1.60;;;;;;;;;;4777262;29;177162;-72
2021/01/29 03:13:37;;;;;;;2.63;1.60;;;;;;;;;;4776694;29;178533;-72
2021/01/29 03:16:28;;;;;;;3.57;1.50;;;;;;;;;;4762495;29;178013;-72
2021/01/29 03:19:27;;;;;;;2.33;1.63;;;;;;;;;;4759703;29;181548;-72
2021/01/29 03:22:16;;;;;;;2.67;1.50;;;;;;;;;;4774901;29;177988;-72
2021/01/29 03:25:04;;;;;;;2.90;1.60;;;;;;;;;;4774522;29;178388;-72
2021/01/29 03:27:55;;;;;;;2.50;1.43;;;;;;;;;;4774750;29;177988;-72
2021/01/29 03:30:55;;;;;;;2.40;1.83;;;;;;;;;;4775220;29;178428;-72
2021/01/29 03:33:42;;;;;;;3.57;1.80;;;;;;;;;;4775606;29;178445;-72
2021/01/29 03:36:30;;;;;;;2.70;1.70;;;;;;;;;;4774743;29;179121;-72
2021/01/29 03:39:18;;;;;;;3.63;1.90;;;;;;;;;;4776073;29;177127;-72
2021/01/29 03:42:30;;;;;;;3.13;1.70;;;;;;;;;;4737249;29;178797;-72
2021/01/29 03:45:18;;;;;;;2.97;1.90;;;;;;;;;;4733848;29;178357;-72
2021/01/29 03:48:15;;;;;;;3.03;1.80;;;;;;;;;;4765386;29;181646;-72
2021/01/29 03:51:05;;;;;;;3.50;1.80;;;;;;;;;;4774573;29;179931;-72
2021/01/29 03:54:00;;;;;;;4.83;2.00;;;;;;;;;;4775220;29;178388;-72
2021/01/29 03:56:56;;;;;;;4.90;2.37;;;;;;;;;;4777271;29;178507;-72
2021/01/29 03:59:56;;;;;;;7.77;2.03;;;;;;;;;;4773510;29;177849;-72
2021/01/29 04:02:59;;;;;;;4.00;1.70;;;;;;;;;;4775537;29;178414;-72
2021/01/29 04:05:56;;;;;;;2.93;1.83;;;;;;;;;;4742107;29;178192;-72
2021/01/29 04:09:05;;;;;;;3.23;2.00;;;;;;;;;;4775029;28;177016;-72
2021/01/29 04:11:57;;;;;;;3.33;1.80;;;;;;;;;;4773515;29;177936;-72
2021/01/29 04:15:17;;;;;;;4.47;2.33;;;;;;;;;;4775732;29;178046;-72
2021/01/29 04:17:49;;;;;;;3.07;2.40;;;;;;;;;;4774540;29;181412;-72
2021/01/29 04:20:21;;;;;;;2.53;2.20;;;;;;;;;;4759644;29;178004;-72
2021/01/29 04:22:49;;;;;;;7.60;2.53;;;;;;;;;;4773737;28;180511;-72
2021/01/29 04:25:27;;;;;;;4.90;2.30;;;;;;;;;;4773339;29;181179;-72
2021/01/29 04:27:55;;;;;;;2.80;2.50;;;;;;;;;;4777027;29;177935;-72
2021/01/29 04:30:24;;;;;;;3.63;2.13;;;;;;;;;;4776615;29;178352;-72
2021/01/29 04:33:21;;;;;;;2.47;2.20;;;;;;;;;;4774081;29;179406;-72
2021/01/29 04:35:50;;;;;;;5.50;2.00;;;;;;;;;;4760842;29;178882;-72
2021/01/29 04:38:37;;;;;;;2.70;1.97;;;;;;;;;;4776365;29;180519;-72
2021/01/29 04:41:09;;;;;;;6.67;1.90;;;;;;;;;;4774811;29;181535;-72
2021/01/29 04:43:44;;;;;;;3.23;2.07;;;;;;;;;;4774309;29;184094;-72
2021/01/29 04:46:29;;;;;;;3.83;1.93;;;;;;;;;;4775558;29;181893;-72
2021/01/29 04:49:15;;;;;;;3.70;1.90;;;;;;;;;;4776356;29;178471;-73
2021/01/29 04:51:49;;;;;;;2.30;2.07;;;;;;;;;;4775861;29;179060;-72
2021/01/29 04:54:32;;;;;;;5.60;2.43;;;;;;;;;;4774126;29;178703;-73
2021/01/29 04:57:20;;;;;;;5.40;2.23;;;;;;;;;;4775677;29;178499;-72
2021/01/29 05:00:02;;;;;;;2.57;1.83;;;;;;;;;;4776931;29;178041;-72
2021/01/29 05:02:59;;;;;;;5.37;2.30;;;;;;;;;;4774025;29;178872;-72
2021/01/29 05:05:58;;;;;;;3.67;1.90;;;;;;;;;;4756564;29;178975;-72
2021/01/29 05:09:06;;;;;;;9.77;2.60;;;;;;;;;;4773298;28;182065;-72
2021/01/29 05:12:10;;;;;;;4.20;2.77;;;;;;;;;;4749125;29;182338;-72
2021/01/29 05:14:55;;;;;;;2.73;2.03;;;;;;;;;;4758302;29;177965;-72
2021/01/29 05:17:39;;;;;;;2.47;2.03;;;;;;;;;;4773814;29;179916;-71
2021/01/29 05:20:16;;;;;;;3.53;2.27;;;;;;;;;;4777658;29;178031;-71
2021/01/29 05:22:46;;;;;;;2.93;2.10;;;;;;;;;;4778716;29;178353;-71
2021/01/29 05:25:29;;;;;;;6.83;2.30;;;;;;;;;;4779226;29;178986;-72
2021/01/29 05:28:13;;;;;;;8.17;2.67;;;;;;;;;;4771617;29;180074;-72
2021/01/29 05:30:53;;;;;;;5.10;2.03;;;;;;;;;;4777119;29;177259;-71
2021/01/29 05:33:36;;;;;;;2.90;1.70;;;;;;;;;;4778555;29;178511;-72
2021/01/29 05:36:10;;;;;;;3.17;1.60;;;;;;;;;;4778358;29;178036;-71
2021/01/29 05:38:44;;;;;;;4.37;1.80;;;;;;;;;;4776583;29;182808;-71
2021/01/29 05:41:30;;;;;;;3.80;1.70;;;;;;;;;;4778940;29;181860;-71
2021/01/29 05:43:56;;;;;;;4.47;2.00;;;;;;;;;;4777841;29;178550;-71
2021/01/29 05:46:52;;;;;;;6.07;2.03;;;;;;;;;;4776976;29;177963;-71
2021/01/29 05:49:19;;;;;;;3.73;2.00;;;;;;;;;;4773606;29;179307;-71
2021/01/29 05:52:05;;;;;;;2.70;1.83;;;;;;;;;;4778096;29;178218;-71
2021/01/29 05:54:44;;;;;;;2.77;1.70;;;;;;;;;;4776904;29;178054;-71
2021/01/29 05:57:20;;;;;;;8.93;1.83;;;;;;;;;;4764011;29;177610;-71
2021/01/29 05:59:55;;;;;;;5.77;4.10;;;;;;;;;;4760211;29;181515;-71
2021/01/29 06:02:47;;;;;;;8.63;5.90;;;;;;;;;;4776273;29;178015;-71
2021/01/29 06:05:27;;;;;;;6.37;4.80;;;;;;;;;;4775391;29;181390;-71
2021/01/29 06:08:09;;;;;;;3.23;2.70;;;;;;;;;;4771313;29;179676;-71
2021/01/29 06:10:44;;;;;;;9.00;6.33;;;;;;;;;;4776197;29;179185;-71
2021/01/29 06:13:11;;;;;;;22.07;3.77;;;;;;;;;;4777335;29;179126;-68
2021/01/29 06:15:44;;;;;;;16.03;4.73;;;;;;;;;;4777733;29;178771;-70
2021/01/29 06:18:17;;;;;;;4.90;2.93;;;;;;;;;;4779200;29;178608;-70
2021/01/29 06:20:56;;;;;;;10.57;2.73;;;;;;;;;;4764284;29;180807;-70
2021/01/29 06:23:34;;;;;;;2.90;2.00;;;;;;;;;;4762850;29;178907;-70
2021/01/29 06:26:23;;;;;;;1.90;1.70;;;;;;;;;;4764883;29;178154;-70
2021/01/29 06:29:08;;;;;;;4.47;2.30;;;;;;;;;;4761018;29;178354;-70
2021/01/29 06:31:54;;;;;;;6.30;1.80;;;;;;;;;;4757413;29;183324;-70
2021/01/29 06:34:27;;;;;;;12.17;2.47;;;;;;;;;;4762493;29;181476;-70
2021/01/29 06:36:53;;;;;;;5.20;2.20;;;;;;;;;;4762187;29;177936;-70
2021/01/29 06:39:26;;;;;;;4.90;2.07;;;;;;;;;;4772520;29;178633;-70
2021/01/29 06:42:15;;;;;;;8.17;2.73;;;;;;;;;;4777970;29;179350;-70
2021/01/29 06:44:41;;;;;;;4.83;3.20;;;;;;;;;;4767483;29;178817;-70
2021/01/29 06:47:14;;;;;;;7.53;2.60;;;;;;;;;;4768859;29;180030;-70
2021/01/29 06:49:40;;;;;;;2.60;2.33;;;;;;;;;;4775232;29;176527;-70
2021/01/29 06:52:24;;;;;;;6.70;2.57;;;;;;;;;;4762808;29;179743;-69
2021/01/29 06:55:02;;;;;;;4.10;2.13;;;;;;;;;;4790063;28;178684;-69
2021/01/29 06:57:40;;;;;;;6.10;5.27;;;;;;;;;;4789690;28;181296;-69
2021/01/29 07:00:25;;;;;;;11.73;4.00;;;;;;;;;;4776418;29;177945;-69
2021/01/29 07:03:11;;;;;;;29.03;4.40;;;;;;;;;;4759131;29;179234;-69
2021/01/29 07:05:41;;;;;;;6.40;2.53;;;;;;;;;;4774073;29;178700;-70
2021/01/29 07:08:08;;;;;;;17.13;3.30;;;;;;;;;;4778481;29;178608;-69
2021/01/29 07:10:53;;;;;;;15.90;3.47;;;;;;;;;;4777663;29;177989;-70
2021/01/29 07:13:35;;;;;;;7.23;2.40;;;;;;;;;;4777341;29;181415;-69
2021/01/29 07:16:12;;;;;;;27.33;4.00;;;;;;;;;;4767459;29;178339;-69
2021/01/29 07:18:42;;;;;;;15.83;3.87;;;;;;;;;;4781587;28;178698;-70
2021/01/29 07:21:18;;;;;;;12.70;3.13;;;;;;;;;;4767804;28;177905;-70
2021/01/29 07:23:46;;;;;;;10.33;3.00;;;;;;;;;;4757903;29;182781;-69
2021/01/29 07:26:16;;;;;;;6.83;2.83;;;;;;;;;;4758769;29;181407;-70
2021/01/29 07:29:01;;;;;;;7.90;2.60;;;;;;;;;;4759821;29;179040;-70
2021/01/29 07:31:46;;;;;;;13.80;3.13;;;;;;;;;;4758885;29;178726;-70
2021/01/29 07:34:43;;;;;;;11.17;3.30;;;;;;;;;;4776202;29;183194;-70
2021/01/29 07:37:28;;;;;;;5.90;2.43;;;;;;;;;;4761561;29;178195;-69
2021/01/29 07:40:03;;;;;;;19.47;4.53;;;;;;;;;;4777697;29;177918;-69
2021/01/29 07:42:45;;;;;;;26.43;4.30;;;;;;;;;;4773507;29;176766;-69
2021/01/29 07:45:25;;;;;;;34.27;5.50;;;;;;;;;;4758921;29;178987;-69
2021/01/29 07:48:15;;;;;;;6.77;2.33;;;;;;;;;;4767695;29;178738;-70
2021/01/29 07:50:44;;;;;;;8.60;2.73;;;;;;;;;;4732742;29;182019;-69
2021/01/29 07:53:15;;;;;;;5.53;2.77;;;;;;;;;;4776933;29;178665;-70
2021/01/29 07:55:59;;;;;;;20.67;3.30;;;;;;;;;;4776605;29;179652;-70
2021/01/29 07:58:41;;;;;;;15.60;3.30;;;;;;;;;;4776949;29;178351;-70
2021/01/29 08:01:11;;;;;;;15.10;3.33;;;;;;;;;;4776914;29;178337;-70
2021/01/29 08:03:56;;;;;;;50.90;6.33;;;;;;;;;;4775528;29;177975;-70
2021/01/29 08:06:23;;;;;;;23.13;4.80;;;;;;;;;;4758203;29;181516;-70
2021/01/29 08:08:58;;;;;;;19.37;3.60;;;;;;;;;;4762870;29;177581;-70
2021/01/29 08:11:26;;;;;;;35.80;5.87;;;;;;;;;;4773506;29;178629;-70
2021/01/29 08:14:03;;;;;;;11.57;2.70;;;;;;;;;;4776704;29;178067;-70
2021/01/29 08:16:48;;;;;;;70.30;6.43;;;;;;;;;;4775339;29;182348;-70
2021/01/29 08:19:20;;;;;;;21.27;3.83;;;;;;;;;;4776871;29;182413;-70
2021/01/29 08:21:57;;;;;;;29.07;4.13;;;;;;;;;;4776813;29;177986;-70
2021/01/29 08:24:39;;;;;;;2.93;1.90;;;;;;;;;;4776937;29;177908;-70
2021/01/29 08:27:24;;;;;;;10.07;2.70;;;;;;;;;;4776117;29;179053;-70
2021/01/29 08:30:24;;;;;;;3.67;2.30;;;;;;;;;;4774817;29;178035;-70
2021/01/29 08:33:24;;;;;;;12.83;2.97;;;;;;;;;;4775557;29;178538;-70
2021/01/29 08:36:09;;;;;;;7.00;3.13;;;;;;;;;;4777291;29;177131;-70
2021/01/29 08:38:41;;;;;;;34.80;4.77;;;;;;;;;;4776723;29;179312;-67
2021/01/29 08:41:19;;;;;;;11.17;3.10;;;;;;;;;;4776108;29;179882;-70
2021/01/29 08:43:52;;;;;;;20.80;3.73;;;;;;;;;;4775405;29;181305;-70
2021/01/29 08:46:24;;;;;;;19.07;3.33;;;;;;;;;;4761345;29;179972;-70
2021/01/29 08:48:50;;;;;;;4.57;2.63;;;;;;;;;;4758264;29;178176;-70
2021/01/29 08:51:22;;;;;;;4.10;2.30;;;;;;;;;;4773981;29;180185;-70
2021/01/29 08:54:00;;;;;;;10.03;2.63;;;;;;;;;;4776073;29;178498;-70
2021/01/29 08:56:51;;;;;;;3.33;2.00;;;;;;;;;;4776761;29;179396;-70
2021/01/29 08:59:19;;;;;;;3.70;2.13;;;;;;;;;;4771880;29;181561;-70
2021/01/29 09:02:01;;;;;;;4.27;2.13;;;;;;;;;;4768331;29;179118;-72
2021/01/29 09:04:35;;;;;;;4.00;2.40;;;;;;;;;;4773091;29;178411;-70
2021/01/29 09:07:06;;;;;;;3.20;2.30;;;;;;;;;;4760575;29;178924;-70
2021/01/29 09:09:37;;;;;;;3.17;2.27;;;;;;;;;;4769377;29;184573;-70
2021/01/29 09:12:05;;;;;;;6.43;2.87;;;;;;;;;;4757356;29;180987;-70
2021/01/29 09:14:35;;;;;;;2.80;2.20;;;;;;;;;;4758375;29;177913;-70
2021/01/29 09:17:05;;;;;;;4.37;2.33;;;;;;;;;;4757999;29;178090;-70
2021/01/29 09:19:34;;;;;;;6.17;2.67;;;;;;;;;;4757443;29;183045;-70
2021/01/29 09:22:15;;;;;;;3.50;2.57;;;;;;;;;;4757200;29;178908;-70
2021/01/29 09:24:58;;;;;;;6.23;2.70;;;;;;;;;;4758484;29;178473;-71
2021/01/29 09:27:39;;;;;;;4.90;3.87;;;;;;;;;;4758779;29;176470;-70
2021/01/29 09:30:14;;;;;;;5.10;2.80;;;;;;;;;;4757876;29;179423;-71
2021/01/29 09:32:52;;;;;;;3.47;2.30;;;;;;;;;;4756757;29;178822;-70
2021/01/29 09:35:23;;;;;;;3.83;2.00;;;;;;;;;;4756090;29;181732;-71
2021/01/29 09:37:51;;;;;;;4.17;2.17;;;;;;;;;;4757580;29;178094;-70
2021/01/29 09:40:27;;;;;;;2.73;2.00;;;;;;;;;;4757282;29;179619;-70
2021/01/29 09:43:13;;;;;;;5.20;2.40;;;;;;;;;;4757027;29;178820;-71
2021/01/29 09:45:41;;;;;;;4.50;2.30;;;;;;;;;;4758310;29;178502;-71
2021/01/29 09:48:11;;;;;;;4.97;2.17;;;;;;;;;;4757497;29;178814;-70
2021/01/29 09:50:40;;;;;;;3.03;2.00;;;;;;;;;;4757435;29;178745;-71
2021/01/29 09:53:07;;;;;;;3.77;2.13;;;;;;;;;;4757469;29;178058;-74
2021/01/29 09:55:37;;;;;;;4.43;1.93;;;;;;;;;;4757638;29;177978;-70
2021/01/29 09:58:28;;;;;;;5.33;2.07;;;;;;;;;;4740749;29;178548;-71
2021/01/29 10:00:58;;;;;;;3.67;1.70;;;;;;;;;;4755137;29;183190;-71
2021/01/29 10:03:30;;;;;;;3.10;1.67;;;;;;;;;;4755918;29;181590;-70
2021/01/29 10:06:06;;;;;;;3.37;1.90;;;;;;;;;;4774624;29;178260;-71
2021/01/29 10:08:41;;;;;;;4.27;1.57;;;;;;;;;;4778044;29;178073;-71
2021/01/29 10:11:23;;;;;;;3.03;1.43;;;;;;;;;;4778384;29;178659;-71
2021/01/29 10:14:11;;;;;;;3.00;1.80;;;;;;;;;;4778909;29;178019;-72
2021/01/29 10:16:55;;;;;;;2.40;1.50;;;;;;;;;;4779249;29;178364;-71
2021/01/29 10:19:42;;;;;;;4.80;1.53;;;;;;;;;;4779803;29;177224;-71
2021/01/29 10:22:28;;;;;;;39.40;3.00;;;;;;;;;;4778382;29;179611;-71
2021/01/29 10:24:57;;;;;;;3.17;1.70;;;;;;;;;;4778015;29;178198;-71
2021/01/29 10:27:33;;;;;;;2.70;1.80;;;;;;;;;;4776491;29;181735;-71
2021/01/29 10:30:04;;;;;;;4.00;1.83;;;;;;;;;;4760104;29;178697;-71
2021/01/29 10:32:36;;;;;;;3.63;2.27;;;;;;;;;;4769397;29;179366;-71
2021/01/29 10:35:21;;;;;;;3.70;1.90;;;;;;;;;;4777900;29;178583;-71
2021/01/29 10:37:54;;;;;;;3.87;2.00;;;;;;;;;;4778478;29;178079;-72
2021/01/29 10:40:39;;;;;;;2.83;1.90;;;;;;;;;;4776643;29;178654;-71
2021/01/29 10:43:09;;;;;;;4.17;2.03;;;;;;;;;;4785971;28;178943;-71
2021/01/29 10:45:39;;;;;;;3.17;1.93;;;;;;;;;;4782912;28;178462;-70
2021/01/29 10:48:15;;;;;;;5.83;3.13;;;;;;;;;;4777863;29;178616;-71
2021/01/29 10:50:46;;;;;;;2.53;2.00;;;;;;;;;;4777515;29;178612;-71
2021/01/29 10:53:16;;;;;;;8.37;2.83;;;;;;;;;;4776229;29;182690;-72
2021/01/29 10:55:51;;;;;;;4.37;3.10;;;;;;;;;;4766670;29;181590;-71
2021/01/29 10:58:23;;;;;;;8.57;5.57;;;;;;;;;;4776726;29;178487;-72
2021/01/29 11:00:58;;;;;;;6.33;4.43;;;;;;;;;;4773006;29;178611;-71
2021/01/29 11:03:45;;;;;;;20.67;13.43;;;;;;;;;;4795432;28;179393;-72
2021/01/29 11:06:13;;;;;;;8.90;4.60;;;;;;;;;;4777404;28;178684;-71
2021/01/29 11:08:41;;;;;;;5.53;3.47;;;;;;;;;;4777619;29;177824;-72
2021/01/29 11:11:12;;;;;;;3.47;2.60;;;;;;;;;;4778644;29;177306;-74
2021/01/29 11:13:53;;;;;;;6.10;4.07;;;;;;;;;;4777887;29;179783;-71
2021/01/29 11:16:23;;;;;;;4.87;2.90;;;;;;;;;;4777508;29;178648;-72
2021/01/29 11:18:56;;;;;;;4.03;2.50;;;;;;;;;;4776254;29;181919;-71
2021/01/29 11:21:22;;;;;;;5.17;2.80;;;;;;;;;;4776317;29;178314;-72
2021/01/29 11:23:57;;;;;;;4.80;2.90;;;;;;;;;;4766299;29;179427;-72
2021/01/29 11:26:27;;;;;;;7.00;5.97;;;;;;;;;;4774293;29;178448;-71
2021/01/29 11:28:59;;;;;;;5.33;2.70;;;;;;;;;;4772422;29;178603;-72
2021/01/29 11:31:36;;;;;;;3.47;3.10;;;;;;;;;;4774078;29;177867;-72
2021/01/29 11:34:03;;;;;;;4.23;2.63;;;;;;;;;;4772947;29;178773;-71
2021/01/29 11:36:36;;;;;;;3.23;2.10;;;;;;;;;;4775261;29;179067;-74
2021/01/29 11:39:10;;;;;;;3.27;2.30;;;;;;;;;;4774754;29;178492;-72
2021/01/29 11:41:44;;;;;;;2.40;2.20;;;;;;;;;;4757374;29;178499;-73
2021/01/29 11:44:32;;;;;;;2.20;2.00;;;;;;;;;;4754309;29;182567;-73
2021/01/29 11:47:05;;;;;;;4.23;2.53;;;;;;;;;;4756484;29;180877;-73
2021/01/29 11:49:37;;;;;;;4.47;2.60;;;;;;;;;;4774130;29;177853;-73
2021/01/29 11:52:23;;;;;;;2.23;1.97;;;;;;;;;;4773762;29;178599;-73
2021/01/29 11:55:05;;;;;;;3.00;1.87;;;;;;;;;;4774669;29;179352;-72
2021/01/29 11:57:41;;;;;;;2.53;1.77;;;;;;;;;;4774921;29;178607;-73
2021/01/29 12:00:18;;;;;;;2.70;1.90;;;;;;;;;;4756548;29;178358;-73
2021/01/29 12:02:49;;;;;;;5.73;2.10;;;;;;;;;;4772180;28;176793;-74
2021/01/29 12:05:31;;;;;;;4.20;2.60;;;;;;;;;;4774845;29;179098;-73
2021/01/29 12:08:03;;;;;;;2.97;2.10;;;;;;;;;;4772121;29;178597;-73
2021/01/29 12:10:50;;;;;;;2.50;2.07;;;;;;;;;;4763100;29;181239;-75
2021/01/29 12:13:19;;;;;;;2.50;1.93;;;;;;;;;;4760970;29;178506;-73
2021/01/29 12:16:06;;;;;;;5.10;2.10;;;;;;;;;;4772929;29;179273;-73
2021/01/29 12:18:34;;;;;;;2.83;2.07;;;;;;;;;;4761192;29;178446;-73
2021/01/29 12:21:06;;;;;;;3.93;2.00;;;;;;;;;;4762650;29;178257;-73
2021/01/29 12:23:40;;;;;;;3.73;2.27;;;;;;;;;;4737583;29;178818;-73
2021/01/29 12:26:07;;;;;;;4.23;2.10;;;;;;;;;;4770927;29;179903;-73
2021/01/29 12:28:40;;;;;;;9.63;6.70;;;;;;;;;;4771573;28;177731;-73
2021/01/29 12:31:22;;;;;;;23.43;12.70;;;;;;;;;;4772452;29;177925;-74
2021/01/29 12:33:58;;;;;;;14.17;9.07;;;;;;;;;;4772463;29;178158;-73
2021/01/29 12:36:27;;;;;;;5.30;2.43;;;;;;;;;;4772062;29;182687;-73
2021/01/29 12:39:02;;;;;;;3.40;3.10;;;;;;;;;;4762532;29;180245;-73
2021/01/29 12:41:44;;;;;;;3.90;3.00;;;;;;;;;;4773909;29;178711;-72
2021/01/29 12:44:19;;;;;;;3.50;1.90;;;;;;;;;;4772263;29;179019;-74
2021/01/29 12:46:52;;;;;;;2.33;1.90;;;;;;;;;;4770518;28;181128;-73
2021/01/29 12:49:31;;;;;;;6.30;2.23;;;;;;;;;;4774007;29;179204;-73
2021/01/29 12:52:08;;;;;;;4.20;1.90;;;;;;;;;;4770380;29;178770;-73
2021/01/29 12:54:42;;;;;;;3.13;2.37;;;;;;;;;;4770152;29;177796;-72
2021/01/29 12:57:17;;;;;;;2.90;2.60;;;;;;;;;;4770161;29;180148;-72
2021/01/29 12:59:59;;;;;;;2.60;1.97;;;;;;;;;;4771227;29;180579;-73
2021/01/29 13:02:35;;;;;;;7.23;2.60;;;;;;;;;;4770142;29;182027;-72
2021/01/29 13:05:18;;;;;;;2.60;1.77;;;;;;;;;;4762730;29;178543;-72
2021/01/29 13:08:16;;;;;;;2.30;1.83;;;;;;;;;;4757678;29;179900;-72
2021/01/29 13:10:48;;;;;;;2.27;1.77;;;;;;;;;;4773554;29;179100;-73
2021/01/29 13:13:21;;;;;;;3.33;1.70;;;;;;;;;;4773706;29;178442;-72
2021/01/29 13:15:52;;;;;;;4.30;2.03;;;;;;;;;;4771483;29;179252;-72
2021/01/29 13:18:25;;;;;;;2.63;1.93;;;;;;;;;;4773781;29;179370;-72
2021/01/29 13:20:55;;;;;;;5.07;2.00;;;;;;;;;;4774382;29;178201;-72
2021/01/29 13:23:38;;;;;;;6.03;3.83;;;;;;;;;;4772661;29;177967;-73
2021/01/29 13:26:06;;;;;;;5.90;4.17;;;;;;;;;;4773926;29;178816;-73
2021/01/29 13:28:34;;;;;;;5.67;3.70;;;;;;;;;;4770841;29;183411;-73
2021/01/29 13:31:11;;;;;;;5.30;2.40;;;;;;;;;;4769566;29;182052;-73
2021/01/29 13:33:45;;;;;;;3.73;3.23;;;;;;;;;;4758077;29;178767;-73
2021/01/29 13:36:24;;;;;;;5.67;5.07;;;;;;;;;;4773494;29;178853;-72
2021/01/29 13:38:51;;;;;;;5.80;4.60;;;;;;;;;;4773127;29;181201;-74
2021/01/29 13:41:22;;;;;;;5.23;3.60;;;;;;;;;;4774109;29;180358;-72
2021/01/29 13:43:49;;;;;;;3.93;2.57;;;;;;;;;;4776732;29;178296;-72
2021/01/29 13:46:33;;;;;;;4.03;3.60;;;;;;;;;;4772957;29;176749;-72
2021/01/29 13:49:13;;;;;;;3.43;2.37;;;;;;;;;;4774247;29;178866;-72
2021/01/29 13:51:40;;;;;;;1.93;1.83;;;;;;;;;;4775881;29;178807;-72
2021/01/29 13:54:11;;;;;;;2.37;2.03;;;;;;;;;;4774426;29;182368;-73
2021/01/29 13:56:42;;;;;;;3.20;2.40;;;;;;;;;;4776782;29;179222;-72
2021/01/29 13:59:09;;;;;;;2.77;2.30;;;;;;;;;;4776394;29;179631;-72
2021/01/29 14:01:39;;;;;;;2.63;1.87;;;;;;;;;;4775626;29;179441;-73
2021/01/29 14:04:08;;;;;;;2.83;1.50;;;;;;;;;;4777154;29;178095;-72
2021/01/29 14:06:36;;;;;;;3.20;1.90;;;;;;;;;;4773360;29;179429;-73
2021/01/29 14:09:06;;;;;;;3.05;2.15;;;;;;;;;;4773261;29;180069;-73
2021/01/29 14:11:52;;;;;;;2.30;1.80;;;;;;;;;;4775624;29;178212;-73
2021/01/29 14:14:36;;;;;;;2.17;1.87;;;;;;;;;;4775662;29;178253;-72
2021/01/29 14:17:18;;;;;;;2.00;1.70;;;;;;;;;;4776116;29;178017;-72
2021/01/29 14:19:53;;;;;;;4.80;3.67;;;;;;;;;;4773647;29;183268;-73
2021/01/29 14:22:19;;;;;;;8.83;5.33;;;;;;;;;;4770141;29;181956;-73
2021/01/29 14:24:55;;;;;;;9.17;4.57;;;;;;;;;;4772581;29;177962;-72
2021/01/29 14:27:30;;;;;;;5.40;4.80;;;;;;;;;;4773671;28;178730;-72
2021/01/29 14:30:16;;;;;;;11.37;7.97;;;;;;;;;;4773889;29;182428;-64
2021/01/29 14:32:58;;;;;;;11.60;7.17;;;;;;;;;;4766797;29;179860;-64
2021/01/29 14:35:28;;;;;;;6.10;4.07;;;;;;;;;;4764015;29;180167;-64
2021/01/29 14:38:10;;;;;;;5.13;4.53;;;;;;;;;;4776402;29;179542;-64
2021/01/29 14:40:44;;;;;;;3.73;3.17;;;;;;;;;;4767278;29;179377;-64
2021/01/29 14:43:29;;;;;;;3.93;2.67;;;;;;;;;;4768885;29;180177;-65
2021/01/29 14:46:05;;;;;;;2.30;2.10;;;;;;;;;;4769763;29;182987;-65
2021/01/29 14:49:07;;;;;;;2.87;1.90;;;;;;;;;;4764317;29;180021;-64
2021/01/29 14:51:42;;;;;;;6.93;3.33;;;;;;;;;;4697533;29;179161;-65
2021/01/29 14:54:19;;;;;;;3.23;2.03;;;;;;;;;;4755002;29;179067;-65
2021/01/29 14:57:04;;;;;;;2.73;1.70;;;;;;;;;;4778544;29;178470;-64
2021/01/29 14:59:37;;;;;;;2.70;2.00;;;;;;;;;;4778017;29;177988;-64
2021/01/29 15:02:06;;;;;;;1.90;1.70;;;;;;;;;;4775150;29;178778;-64
2021/01/29 15:04:36;;;;;;;3.93;3.33;;;;;;;;;;4778880;29;177986;-64
2021/01/29 15:07:23;;;;;;;6.37;5.77;;;;;;;;;;4775430;29;179938;-64
2021/01/29 15:09:57;;;;;;;4.00;2.87;;;;;;;;;;4763389;29;178379;-66
2021/01/29 15:12:25;;;;;;;2.70;2.50;;;;;;;;;;4775589;29;183812;-64
2021/01/29 15:14:53;;;;;;;3.17;2.20;;;;;;;;;;4777292;29;180983;-64
2021/01/29 15:17:23;;;;;;;3.43;2.07;;;;;;;;;;4778589;29;177866;-64
2021/01/29 15:19:50;;;;;;;2.50;2.30;;;;;;;;;;4777804;29;177926;-64
2021/01/29 15:22:22;;;;;;;3.23;2.33;;;;;;;;;;4777884;29;179721;-64
2021/01/29 15:24:50;;;;;;;3.83;2.73;;;;;;;;;;4777800;29;178080;-63
2021/01/29 15:27:23;;;;;;;4.60;2.70;;;;;;;;;;4778484;29;177897;-64
2021/01/29 15:29:55;;;;;;;4.07;2.13;;;;;;;;;;4778639;29;176909;-64
2021/01/29 15:32:23;;;;;;;4.33;2.40;;;;;;;;;;4791379;28;180396;-64